createdAt,value
2022-12-24T00:01:19.734Z,95.30
2022-12-24T00:03:48.798Z,95.30
2022-12-24T00:06:22.310Z,95.20
2022-12-24T00:08:51.190Z,95.30
2022-12-24T00:11:19.284Z,95.30
2022-12-24T00:13:46.357Z,95.30
2022-12-24T00:16:13.526Z,95.30
2022-12-24T00:18:46.383Z,95.30
2022-12-24T00:21:15.660Z,95.20
2022-12-24T00:23:42.948Z,95.20
2022-12-24T00:26:10.478Z,95.10
2022-12-24T00:28:37.515Z,95.20
2022-12-24T00:31:18.407Z,95.20
2022-12-24T00:33:48.823Z,95.20
2022-12-24T00:36:16.724Z,95.30
2022-12-24T00:38:44.575Z,95.30
2022-12-24T00:41:25.486Z,95.40
2022-12-24T00:43:57.022Z,95.40
2022-12-24T00:46:25.486Z,95.30
2022-12-24T00:48:53.436Z,95.30
2022-12-24T00:51:21.771Z,95.40
2022-12-24T00:53:49.901Z,95.40
2022-12-24T00:56:16.998Z,95.50
2022-12-24T00:58:43.979Z,95.30
2022-12-24T01:01:11.068Z,95.40
2022-12-24T01:03:38.684Z,95.40
2022-12-24T01:06:13.201Z,95.40
2022-12-24T01:08:42.878Z,95.40
2022-12-24T01:11:12.003Z,95.30
2022-12-24T01:13:40.044Z,95.40
2022-12-24T01:16:16.327Z,95.40
2022-12-24T01:18:43.602Z,95.40
2022-12-24T01:21:10.685Z,95.40
2022-12-24T01:23:37.913Z,95.40
2022-12-24T01:26:05.497Z,95.50
2022-12-24T01:28:33.367Z,95.50
2022-12-24T01:31:00.815Z,95.50
2022-12-24T01:33:31.013Z,95.50
2022-12-24T01:35:58.137Z,95.50
2022-12-24T01:38:25.191Z,95.50
2022-12-24T01:41:10.875Z,95.50
2022-12-24T01:43:37.899Z,95.50
2022-12-24T01:46:39.509Z,95.60
2022-12-24T01:49:07.157Z,95.60
2022-12-24T01:51:39.387Z,95.60
2022-12-24T01:54:28.101Z,95.60
2022-12-24T01:57:09.513Z,95.60
2022-12-24T01:59:38.349Z,95.60
2022-12-24T02:02:08.301Z,95.70
2022-12-24T02:04:49.445Z,95.70
2022-12-24T02:07:16.773Z,95.70
2022-12-24T02:09:44.595Z,95.70
2022-12-24T02:12:11.758Z,95.70
2022-12-24T02:14:39.136Z,95.70
2022-12-24T02:17:26.430Z,95.80
2022-12-24T02:20:25.714Z,95.80
2022-12-24T02:22:58.503Z,95.80
2022-12-24T02:25:54.068Z,95.80
2022-12-24T02:28:57.873Z,95.70
2022-12-24T02:31:48.590Z,95.70
2022-12-24T02:35:13.694Z,95.80
2022-12-24T02:37:47.651Z,96.10
2022-12-24T02:40:19.901Z,95.80
2022-12-24T02:42:51.923Z,95.90
2022-12-24T02:45:23.229Z,95.90
2022-12-24T02:47:52.009Z,95.90
2022-12-24T02:50:19.492Z,95.90
2022-12-24T02:52:47.782Z,95.90
2022-12-24T02:55:32.552Z,95.90
2022-12-24T02:58:29.089Z,95.90
2022-12-24T03:01:20.992Z,96.00
2022-12-24T03:03:53.860Z,96.00
2022-12-24T03:06:48.243Z,96.00
2022-12-24T03:09:26.655Z,96.10
2022-12-24T03:12:11.212Z,96.10
2022-12-24T03:14:40.566Z,96.10
2022-12-24T03:17:09.052Z,96.00
2022-12-24T03:19:36.593Z,96.10
2022-12-24T03:22:07.631Z,96.10
2022-12-24T03:24:35.049Z,96.10
2022-12-24T03:27:02.572Z,96.10
2022-12-24T03:29:29.846Z,96.10
2022-12-24T03:32:02.064Z,96.10
2022-12-24T03:34:29.551Z,96.10
2022-12-24T03:36:56.762Z,96.20
2022-12-24T03:39:24.522Z,96.10
2022-12-24T03:41:51.603Z,96.20
2022-12-24T03:44:18.657Z,96.10
2022-12-24T03:46:45.727Z,96.20
2022-12-24T03:49:12.803Z,96.10
2022-12-24T03:51:39.781Z,96.20
2022-12-24T03:54:06.789Z,96.20
2022-12-24T03:56:33.969Z,96.20
2022-12-24T03:59:01.090Z,96.20
2022-12-24T04:01:28.161Z,96.20
2022-12-24T04:03:55.288Z,96.20
2022-12-24T04:06:22.571Z,96.20
2022-12-24T04:08:49.775Z,96.20
2022-12-24T04:11:17.554Z,96.30
2022-12-24T04:13:44.985Z,96.20
2022-12-24T04:16:16.781Z,96.20
2022-12-24T04:18:44.370Z,96.30
2022-12-24T04:21:11.830Z,96.30
2022-12-24T04:23:40.649Z,96.40
2022-12-24T04:26:09.625Z,96.30
2022-12-24T04:28:37.440Z,96.30
2022-12-24T04:31:07.706Z,96.30
2022-12-24T04:33:35.270Z,96.20
2022-12-24T04:36:03.784Z,96.30
2022-12-24T04:38:31.917Z,96.40
2022-12-24T04:40:59.996Z,96.40
2022-12-24T04:43:28.308Z,96.30
2022-12-24T04:45:55.851Z,96.40
2022-12-24T04:48:23.489Z,96.50
2022-12-24T04:50:50.533Z,96.40
2022-12-24T04:53:20.610Z,96.30
2022-12-24T04:55:47.820Z,96.40
2022-12-24T04:58:17.929Z,96.30
2022-12-24T05:00:44.954Z,96.40
2022-12-24T05:03:12.026Z,96.40
2022-12-24T05:05:39.122Z,96.30
2022-12-24T05:08:06.654Z,96.50
2022-12-24T05:10:33.675Z,96.40
2022-12-24T05:13:00.794Z,96.50
2022-12-24T05:15:27.826Z,96.40
2022-12-24T05:17:54.929Z,96.40
2022-12-24T05:20:22.022Z,96.40
2022-12-24T05:23:20.788Z,96.40
2022-12-24T05:26:06.375Z,96.50
2022-12-24T05:28:33.409Z,96.50
2022-12-24T05:31:00.690Z,96.40
2022-12-24T05:33:28.444Z,96.40
2022-12-24T05:35:55.509Z,96.40
2022-12-24T05:38:22.515Z,96.60
2022-12-24T05:40:49.636Z,96.50
2022-12-24T05:43:16.633Z,96.50
2022-12-24T05:45:43.697Z,96.50
2022-12-24T05:48:10.927Z,96.50
2022-12-24T05:50:40.344Z,96.50
2022-12-24T05:53:07.915Z,96.60
2022-12-24T05:55:35.071Z,96.60
2022-12-24T05:58:02.068Z,96.60
2022-12-24T06:00:29.131Z,96.60
2022-12-24T06:02:56.305Z,96.60
2022-12-24T06:05:23.476Z,96.60
2022-12-24T06:07:50.529Z,96.60
2022-12-24T06:10:17.558Z,96.60
2022-12-24T06:12:44.583Z,96.60
2022-12-24T06:15:11.674Z,96.60
2022-12-24T06:17:38.766Z,96.70
2022-12-24T06:20:06.308Z,96.50
2022-12-24T06:22:33.494Z,96.70
2022-12-24T06:25:00.622Z,96.60
2022-12-24T06:27:27.921Z,96.70
2022-12-24T06:29:54.987Z,96.50
2022-12-24T06:32:22.181Z,96.70
2022-12-24T06:34:49.204Z,96.60
2022-12-24T06:37:18.561Z,96.60
2022-12-24T06:39:46.740Z,96.70
2022-12-24T06:42:14.387Z,96.70
2022-12-24T06:44:41.587Z,96.80
2022-12-24T06:47:08.568Z,96.70
2022-12-24T06:49:35.681Z,96.80
2022-12-24T06:52:05.631Z,96.70
2022-12-24T06:54:32.896Z,96.70
2022-12-24T06:57:01.998Z,96.80
2022-12-24T06:59:28.983Z,96.80
2022-12-24T07:01:56.067Z,96.90
2022-12-24T07:04:23.294Z,96.80
2022-12-24T07:06:50.458Z,96.80
2022-12-24T07:09:17.442Z,96.90
2022-12-24T07:11:44.558Z,96.90
2022-12-24T07:14:11.734Z,97.00
2022-12-24T07:16:38.840Z,97.00
2022-12-24T07:19:05.946Z,97.00
2022-12-24T07:21:33.061Z,97.00
2022-12-24T07:24:00.405Z,96.90
2022-12-24T07:26:27.537Z,96.90
2022-12-24T07:28:54.523Z,97.10
2022-12-24T07:31:21.745Z,97.00
2022-12-24T07:33:48.872Z,97.00
2022-12-24T07:36:21.984Z,97.00
2022-12-24T07:38:49.756Z,97.00
2022-12-24T07:41:17.046Z,96.90
2022-12-24T07:43:44.156Z,97.00
2022-12-24T07:46:11.411Z,97.10
2022-12-24T07:48:38.684Z,97.40
2022-12-24T07:51:05.889Z,97.10
2022-12-24T07:53:33.059Z,97.30
2022-12-24T07:56:00.211Z,97.10
2022-12-24T07:58:27.329Z,97.20
2022-12-24T08:00:58.792Z,97.20
2022-12-24T08:03:28.643Z,97.20
2022-12-24T08:05:59.982Z,97.80
2022-12-24T08:08:30.443Z,97.60
2022-12-24T08:11:02.905Z,97.60
2022-12-24T08:13:30.544Z,97.40
2022-12-24T08:16:00.843Z,97.60
2022-12-24T08:18:33.864Z,97.40
2022-12-24T08:21:00.984Z,97.50
2022-12-24T08:23:28.295Z,97.50
2022-12-24T08:25:58.122Z,97.50
2022-12-24T08:28:25.209Z,97.50
2022-12-24T08:30:52.611Z,97.60
2022-12-24T08:33:20.138Z,97.50
2022-12-24T08:35:52.341Z,97.50
2022-12-24T08:38:20.096Z,97.60
2022-12-24T08:40:50.085Z,97.70
2022-12-24T08:43:17.847Z,97.50
2022-12-24T08:45:45.511Z,97.40
2022-12-24T08:48:12.748Z,97.60
2022-12-24T08:50:41.071Z,97.60
2022-12-24T08:53:09.533Z,97.80
2022-12-24T08:55:37.465Z,97.70
2022-12-24T08:58:04.868Z,97.70
2022-12-24T09:00:35.984Z,97.60
2022-12-24T09:03:06.853Z,97.70
2022-12-24T09:05:34.562Z,97.90
2022-12-24T09:08:01.989Z,97.90
2022-12-24T09:10:29.044Z,98.20
2022-12-24T09:12:56.103Z,98.30
2022-12-24T09:15:23.154Z,98.10
2022-12-24T09:17:50.275Z,98.40
2022-12-24T09:20:17.428Z,98.30
2022-12-24T09:22:44.498Z,98.60
2022-12-24T09:25:11.620Z,98.30
2022-12-24T09:27:38.715Z,98.40
2022-12-24T09:30:07.283Z,98.60
2022-12-24T09:32:34.592Z,98.60
2022-12-24T09:35:01.767Z,98.60
2022-12-24T09:37:28.911Z,98.40
2022-12-24T09:39:55.975Z,98.50
2022-12-24T09:42:29.294Z,98.10
2022-12-24T09:45:11.190Z,98.70
2022-12-24T09:47:46.560Z,98.40
2022-12-24T09:50:27.239Z,98.50
2022-12-24T09:52:55.799Z,99.00
2022-12-24T09:55:32.714Z,99.00
2022-12-24T09:58:02.440Z,98.70
2022-12-24T10:00:33.651Z,98.80
2022-12-24T10:03:00.824Z,99.00
2022-12-24T10:06:09.959Z,98.60
2022-12-24T10:09:00.447Z,98.60
2022-12-24T10:11:36.725Z,98.60
2022-12-24T10:14:08.527Z,98.40
2022-12-24T10:16:53.931Z,98.80
2022-12-24T10:19:26.687Z,98.70
2022-12-24T10:22:26.555Z,98.70
2022-12-24T10:25:30.740Z,98.90
2022-12-24T10:28:01.178Z,99.00
2022-12-24T10:30:28.969Z,98.80
2022-12-24T10:32:59.558Z,98.80
2022-12-24T10:35:36.413Z,98.80
2022-12-24T10:38:04.532Z,98.80
2022-12-24T10:40:31.955Z,98.60
2022-12-24T10:42:59.133Z,98.70
2022-12-24T10:45:32.313Z,98.90
2022-12-24T10:48:05.134Z,98.90
2022-12-24T10:50:36.191Z,98.90
2022-12-24T10:53:27.692Z,99.10
2022-12-24T10:56:06.045Z,99.10
2022-12-24T10:58:34.260Z,98.90
2022-12-24T11:01:01.917Z,98.80
2022-12-24T11:03:35.195Z,98.70
2022-12-24T11:06:12.292Z,98.70
2022-12-24T11:08:42.693Z,98.60
2022-12-24T11:11:16.338Z,98.70
2022-12-24T11:13:46.231Z,98.60
2022-12-24T11:16:32.337Z,98.70
2022-12-24T11:19:03.235Z,98.70
2022-12-24T11:21:37.260Z,98.60
2022-12-24T11:24:13.202Z,98.70
2022-12-24T11:26:42.732Z,98.80
2022-12-24T11:29:15.846Z,98.80
2022-12-24T11:31:44.716Z,98.70
2022-12-24T11:34:30.707Z,98.80
2022-12-24T11:37:17.505Z,98.60
2022-12-24T11:39:56.133Z,98.70
2022-12-24T11:42:37.148Z,98.70
2022-12-24T11:45:19.204Z,99.00
2022-12-24T11:47:46.511Z,98.90
2022-12-24T11:50:21.305Z,99.00
2022-12-24T11:52:55.262Z,98.70
2022-12-24T11:55:42.172Z,98.60
2022-12-24T11:58:30.425Z,98.60
2022-12-24T12:01:24.773Z,98.90
2022-12-24T12:03:57.076Z,98.70
2022-12-24T12:06:38.456Z,98.70
2022-12-24T12:09:18.177Z,98.70
2022-12-24T12:11:48.690Z,98.60
2022-12-24T12:14:29.407Z,98.80
2022-12-24T12:17:24.489Z,98.70
2022-12-24T12:20:13.282Z,98.80
2022-12-24T12:22:55.465Z,99.00
2022-12-24T12:25:27.795Z,98.80
2022-12-24T12:27:57.586Z,98.70
2022-12-24T12:30:26.556Z,98.60
2022-12-24T12:33:07.309Z,98.60
2022-12-24T12:35:38.375Z,99.70
2022-12-24T12:38:25.964Z,99.50
2022-12-24T12:41:06.973Z,99.30
2022-12-24T12:44:01.178Z,99.20
2022-12-24T12:46:42.022Z,99.20
2022-12-24T12:49:11.922Z,99.20
2022-12-24T12:52:10.042Z,99.00
2022-12-24T12:54:55.000Z,99.00
2022-12-24T12:57:26.188Z,99.00
2022-12-24T13:00:21.299Z,99.10
2022-12-24T13:03:06.028Z,99.10
2022-12-24T13:05:57.537Z,99.00
2022-12-24T13:08:34.836Z,99.00
2022-12-24T13:11:16.847Z,99.00
2022-12-24T13:14:31.294Z,99.00
2022-12-24T13:17:43.099Z,99.00
2022-12-24T13:20:22.404Z,99.00
2022-12-24T13:23:21.681Z,99.10
2022-12-24T13:25:57.625Z,99.10
2022-12-24T13:28:24.837Z,99.00
2022-12-24T13:31:14.737Z,99.10
2022-12-24T13:33:41.816Z,99.10
2022-12-24T13:36:17.898Z,99.10
2022-12-24T13:38:58.281Z,99.00
2022-12-24T13:41:39.203Z,99.00
2022-12-24T13:44:07.038Z,98.90
2022-12-24T13:47:13.109Z,99.00
2022-12-24T13:49:43.871Z,99.10
2022-12-24T13:52:10.975Z,99.20
2022-12-24T13:54:41.761Z,99.00
2022-12-24T13:57:41.504Z,99.20
2022-12-24T14:00:20.635Z,99.00
2022-12-24T14:03:06.376Z,99.10
2022-12-24T14:06:02.851Z,99.10
2022-12-24T14:08:52.280Z,99.00
2022-12-24T14:11:22.049Z,99.00
2022-12-24T14:13:49.180Z,99.00
2022-12-24T14:16:30.083Z,99.00
2022-12-24T14:19:23.887Z,98.90
2022-12-24T14:22:28.721Z,99.00
2022-12-24T14:25:02.393Z,98.90
2022-12-24T14:27:37.970Z,99.00
2022-12-24T14:30:19.129Z,99.00
2022-12-24T14:32:47.492Z,99.00
2022-12-24T14:35:14.509Z,99.00
2022-12-24T14:38:04.492Z,99.10
2022-12-24T14:40:35.108Z,98.90
2022-12-24T14:43:24.941Z,98.90
2022-12-24T14:46:06.948Z,99.20
2022-12-24T14:48:45.752Z,98.90
2022-12-24T14:51:15.885Z,99.00
2022-12-24T14:54:16.855Z,99.00
2022-12-24T14:56:43.980Z,99.20
2022-12-24T14:59:19.523Z,99.10
2022-12-24T15:01:47.307Z,99.10
2022-12-24T15:04:15.983Z,99.10
2022-12-24T15:06:54.716Z,99.10
2022-12-24T15:09:24.687Z,99.10
2022-12-24T15:11:55.417Z,99.10
2022-12-24T15:14:25.399Z,99.10
2022-12-24T15:17:18.997Z,99.10
2022-12-24T15:19:50.321Z,99.10
2022-12-24T15:22:26.051Z,99.00
2022-12-24T15:24:56.175Z,99.00
2022-12-24T15:27:26.448Z,99.00
2022-12-24T15:29:58.151Z,99.10
2022-12-24T15:32:25.502Z,99.10
2022-12-24T15:34:54.586Z,99.10
2022-12-24T15:37:24.987Z,99.10
2022-12-24T15:39:57.910Z,99.00
2022-12-24T15:42:26.239Z,99.00
2022-12-24T15:45:25.117Z,99.00
2022-12-24T15:48:21.216Z,99.10
2022-12-24T15:50:50.333Z,99.20
2022-12-24T15:53:32.564Z,99.50
2022-12-24T15:56:00.798Z,99.10
2022-12-24T15:58:34.518Z,99.20
2022-12-24T16:01:04.651Z,99.10
2022-12-24T16:03:32.767Z,99.00
2022-12-24T16:06:04.696Z,99.30
2022-12-24T16:08:36.611Z,99.00
2022-12-24T16:11:12.627Z,99.00
2022-12-24T16:13:51.289Z,99.00
2022-12-24T16:16:23.124Z,99.00
2022-12-24T16:18:59.051Z,98.90
2022-12-24T16:21:29.057Z,99.00
2022-12-24T16:23:58.541Z,99.00
2022-12-24T16:26:25.565Z,99.00
2022-12-24T16:28:52.553Z,98.90
2022-12-24T16:31:30.968Z,98.90
2022-12-24T16:33:59.987Z,99.00
2022-12-24T16:36:28.302Z,98.90
2022-12-24T16:39:17.012Z,98.90
2022-12-24T16:42:04.685Z,98.90
2022-12-24T16:44:31.772Z,99.00
2022-12-24T16:47:00.537Z,98.90
2022-12-24T16:49:28.998Z,98.90
2022-12-24T16:51:56.110Z,98.90
2022-12-24T16:54:23.238Z,98.90
2022-12-24T16:56:50.281Z,98.90
2022-12-24T16:59:21.109Z,98.90
2022-12-24T17:01:48.968Z,99.00
2022-12-24T17:04:18.281Z,98.90
2022-12-24T17:06:45.884Z,98.90
2022-12-24T17:09:13.410Z,98.90
2022-12-24T17:11:40.393Z,98.90
2022-12-24T17:14:08.951Z,98.80
2022-12-24T17:16:37.712Z,98.90
2022-12-24T17:19:05.235Z,98.90
2022-12-24T17:21:32.460Z,98.80
2022-12-24T17:23:59.519Z,98.80
2022-12-24T17:26:26.811Z,98.80
2022-12-24T17:28:55.537Z,98.80
2022-12-24T17:31:23.661Z,98.80
2022-12-24T17:33:52.347Z,98.80
2022-12-24T17:36:20.038Z,98.80
2022-12-24T17:38:47.101Z,98.80
2022-12-24T17:41:16.865Z,98.80
2022-12-24T17:43:44.146Z,98.80
2022-12-24T17:46:15.473Z,98.80
2022-12-24T17:48:43.367Z,98.90
2022-12-24T17:51:13.261Z,98.80
2022-12-24T17:53:42.197Z,98.90
2022-12-24T17:56:12.447Z,98.90
2022-12-24T17:58:40.881Z,98.80
2022-12-24T18:01:16.287Z,98.80
2022-12-24T18:03:45.212Z,98.90
2022-12-24T18:06:13.038Z,98.80
2022-12-24T18:08:41.844Z,98.90
2022-12-24T18:11:15.892Z,98.90
2022-12-24T18:13:43.557Z,98.80
2022-12-24T18:16:29.770Z,98.80
2022-12-24T18:18:57.905Z,98.80
2022-12-24T18:21:28.299Z,98.80
2022-12-24T18:23:58.997Z,98.80
2022-12-24T18:26:29.668Z,98.80
2022-12-24T18:28:58.405Z,98.80
2022-12-24T18:31:26.987Z,98.90
2022-12-24T18:33:56.000Z,98.90
2022-12-24T18:36:23.591Z,98.90
2022-12-24T18:38:53.660Z,99.20
2022-12-24T18:41:27.387Z,98.90
2022-12-24T18:43:55.497Z,98.90
2022-12-24T18:46:27.002Z,98.90
2022-12-24T18:48:55.961Z,99.00
2022-12-24T18:51:24.617Z,99.00
2022-12-24T18:53:51.821Z,99.00
2022-12-24T18:56:24.272Z,98.90
2022-12-24T18:58:57.293Z,98.90
2022-12-24T19:01:32.808Z,98.90
2022-12-24T19:04:00.427Z,98.90
2022-12-24T19:06:27.708Z,98.90
2022-12-24T19:08:58.394Z,98.90
2022-12-24T19:11:28.929Z,99.00
2022-12-24T19:13:58.118Z,99.10
2022-12-24T19:16:26.012Z,99.10
2022-12-24T19:18:53.276Z,99.20
2022-12-24T19:21:20.539Z,99.10
2022-12-24T19:23:48.210Z,99.30
2022-12-24T19:26:16.922Z,99.30
2022-12-24T19:28:43.988Z,99.30
2022-12-24T19:31:17.585Z,99.30
2022-12-24T19:33:47.307Z,99.30
2022-12-24T19:36:28.778Z,99.30
2022-12-24T19:38:57.446Z,99.20
2022-12-24T19:41:26.979Z,99.20
2022-12-24T19:43:56.377Z,99.30
2022-12-24T19:46:27.682Z,99.20
2022-12-24T19:49:00.589Z,99.30
2022-12-24T19:51:29.238Z,99.30
2022-12-24T19:53:57.833Z,99.20
2022-12-24T19:56:27.618Z,99.30
2022-12-24T19:58:58.880Z,99.70
2022-12-24T20:01:28.538Z,99.40
2022-12-24T20:03:56.518Z,99.40
2022-12-24T20:06:26.004Z,99.40
2022-12-24T20:08:57.210Z,99.40
2022-12-24T20:11:24.285Z,99.40
2022-12-24T20:13:51.388Z,99.50
2022-12-24T20:16:20.678Z,99.50
2022-12-24T20:18:52.491Z,99.60
2022-12-24T20:21:19.879Z,99.70
2022-12-24T20:23:47.390Z,99.60
2022-12-24T20:26:16.544Z,99.80
2022-12-24T20:28:43.909Z,99.60
2022-12-24T20:31:17.316Z,99.60
2022-12-24T20:33:45.353Z,99.60
2022-12-24T20:36:14.412Z,99.70
2022-12-24T20:38:41.825Z,99.80
2022-12-24T20:41:09.959Z,99.90
2022-12-24T20:43:45.139Z,99.60
2022-12-24T20:46:15.746Z,99.60
2022-12-24T20:48:46.088Z,99.60
2022-12-24T20:51:23.784Z,99.70
2022-12-24T20:54:01.196Z,99.60
2022-12-24T20:56:29.317Z,99.60
2022-12-24T20:58:56.736Z,99.50
2022-12-24T21:01:26.619Z,99.50
2022-12-24T21:03:55.564Z,99.50
2022-12-24T21:06:25.671Z,99.50
2022-12-24T21:08:56.873Z,99.50
2022-12-24T21:11:42.278Z,99.40
2022-12-24T21:14:10.027Z,99.50
2022-12-24T21:16:38.415Z,99.70
2022-12-24T21:19:09.590Z,99.60
2022-12-24T21:21:39.863Z,99.60
2022-12-24T21:24:11.582Z,99.50
2022-12-24T21:26:39.152Z,99.60
2022-12-24T21:29:08.305Z,99.50
2022-12-24T21:31:36.983Z,99.60
2022-12-24T21:34:06.836Z,99.60
2022-12-24T21:36:33.962Z,99.80
2022-12-24T21:39:01.020Z,99.90
2022-12-24T21:41:28.248Z,99.70
2022-12-24T21:43:55.396Z,99.80
2022-12-24T21:46:25.388Z,99.70
2022-12-24T21:49:12.129Z,99.70
2022-12-24T21:51:40.334Z,99.50
2022-12-24T21:54:26.487Z,99.50
2022-12-24T21:57:14.446Z,99.50
2022-12-24T21:59:41.611Z,99.40
2022-12-24T22:02:13.059Z,99.40
2022-12-24T22:04:40.703Z,99.40
2022-12-24T22:07:29.430Z,99.40
2022-12-24T22:10:14.911Z,99.40
2022-12-24T22:12:41.952Z,99.50
2022-12-24T22:15:09.447Z,99.50
2022-12-24T22:17:36.458Z,99.50
2022-12-24T22:20:04.088Z,99.40
2022-12-24T22:22:31.191Z,99.40
2022-12-24T22:25:01.188Z,99.40
2022-12-24T22:27:28.319Z,99.40
2022-12-24T22:29:55.474Z,99.40
2022-12-24T22:32:22.638Z,99.60
2022-12-24T22:34:49.743Z,99.70
2022-12-24T22:37:17.015Z,99.70
2022-12-24T22:39:47.044Z,99.60
2022-12-24T22:42:14.084Z,99.40
2022-12-24T22:44:41.181Z,99.60
2022-12-24T22:47:08.179Z,99.50
2022-12-24T22:49:36.812Z,99.50
2022-12-24T22:52:04.112Z,99.40
2022-12-24T22:54:31.336Z,99.40
2022-12-24T22:56:58.705Z,99.40
2022-12-24T22:59:25.832Z,99.50
2022-12-24T23:01:53.803Z,99.60
2022-12-24T23:04:21.109Z,99.50
2022-12-24T23:06:48.475Z,99.50
2022-12-24T23:09:16.678Z,99.60
2022-12-24T23:11:44.891Z,99.60
2022-12-24T23:14:38.617Z,99.60
2022-12-24T23:17:06.479Z,99.40
2022-12-24T23:19:34.306Z,99.40
2022-12-24T23:22:05.588Z,99.50
2022-12-24T23:24:34.673Z,99.50
2022-12-24T23:27:02.043Z,99.70
2022-12-24T23:29:30.194Z,99.60
2022-12-24T23:31:57.410Z,99.70
2022-12-24T23:34:24.667Z,99.80
2022-12-24T23:36:51.731Z,99.80
2022-12-24T23:39:18.837Z,99.90
2022-12-24T23:41:45.853Z,99.70
2022-12-24T23:44:12.956Z,99.90
2022-12-24T23:46:41.323Z,99.80
2022-12-24T23:49:11.613Z,99.90
2022-12-24T23:51:38.570Z,99.90
2022-12-24T23:54:05.689Z,99.70
2022-12-24T23:56:32.743Z,99.80
2022-12-24T23:59:01.917Z,99.90
